sensor_id;sensor_type;location;lat;lon;timestamp;P1;durP1;ratioP1;P2;durP2;ratioP2
3757;SDS011;1894;51.038;13.692;2022-10-17T00:00:56;11.23;;;7.60;;
3757;SDS011;1894;51.038;13.692;2022-10-17T00:03:24;10.43;;;6.50;;
3757;SDS011;1894;51.038;13.692;2022-10-17T00:05:51;7.80;;;6.40;;
3757;SDS011;1894;51.038;13.692;2022-10-17T00:08:18;9.50;;;6.40;;
3757;SDS011;1894;51.038;13.692;2022-10-17T00:10:54;13.73;;;7.17;;
3757;SDS011;1894;51.038;13.692;2022-10-17T00:13:24;6.10;;;5.50;;
3757;SDS011;1894;51.038;13.692;2022-10-17T00:15:52;19.13;;;6.03;;
3757;SDS011;1894;51.038;13.692;2022-10-17T00:18:19;11.37;;;5.53;;
3757;SDS011;1894;51.038;13.692;2022-10-17T00:20:46;6.20;;;5.10;;
3757;SDS011;1894;51.038;13.692;2022-10-17T00:23:14;5.47;;;4.70;;
3757;SDS011;1894;51.038;13.692;2022-10-17T00:25:41;11.93;;;5.17;;
3757;SDS011;1894;51.038;13.692;2022-10-17T00:28:10;12.50;;;5.50;;
3757;SDS011;1894;51.038;13.692;2022-10-17T00:30:38;8.20;;;5.27;;
3757;SDS011;1894;51.038;13.692;2022-10-17T00:33:06;5.77;;;4.43;;
3757;SDS011;1894;51.038;13.692;2022-10-17T00:35:33;7.83;;;5.20;;
3757;SDS011;1894;51.038;13.692;2022-10-17T00:38:00;9.90;;;5.53;;
3757;SDS011;1894;51.038;13.692;2022-10-17T00:40:28;5.20;;;4.43;;
3757;SDS011;1894;51.038;13.692;2022-10-17T00:42:55;7.50;;;5.03;;
3757;SDS011;1894;51.038;13.692;2022-10-17T00:45:25;8.20;;;5.70;;
3757;SDS011;1894;51.038;13.692;2022-10-17T00:48:13;10.90;;;5.63;;
3757;SDS011;1894;51.038;13.692;2022-10-17T00:50:45;7.13;;;6.00;;
3757;SDS011;1894;51.038;13.692;2022-10-17T00:53:15;5.80;;;4.93;;
3757;SDS011;1894;51.038;13.692;2022-10-17T00:55:46;11.67;;;5.63;;
3757;SDS011;1894;51.038;13.692;2022-10-17T00:58:16;9.47;;;6.50;;
3757;SDS011;1894;51.038;13.692;2022-10-17T01:00:45;15.83;;;6.10;;
3757;SDS011;1894;51.038;13.692;2022-10-17T01:03:14;8.13;;;5.83;;
3757;SDS011;1894;51.038;13.692;2022-10-17T01:05:41;7.80;;;5.63;;
3757;SDS011;1894;51.038;13.692;2022-10-17T01:08:09;9.87;;;5.67;;
3757;SDS011;1894;51.038;13.692;2022-10-17T01:16:45;12.90;;;7.87;;
3757;SDS011;1894;51.038;13.692;2022-10-17T01:22:54;31.73;;;11.30;;
3757;SDS011;1894;51.038;13.692;2022-10-17T01:31:44;23.97;;;15.73;;
3757;SDS011;1894;51.038;13.692;2022-10-17T01:34:22;30.70;;;15.97;;
3757;SDS011;1894;51.038;13.692;2022-10-17T01:37:03;26.70;;;16.23;;
3757;SDS011;1894;51.038;13.692;2022-10-17T01:39:52;32.43;;;17.13;;
3757;SDS011;1894;51.038;13.692;2022-10-17T01:42:42;22.37;;;16.67;;
3757;SDS011;1894;51.038;13.692;2022-10-17T01:45:26;29.43;;;16.77;;
3757;SDS011;1894;51.038;13.692;2022-10-17T01:48:26;26.50;;;18.43;;
3757;SDS011;1894;51.038;13.692;2022-10-17T01:53:53;30.87;;;20.07;;
3757;SDS011;1894;51.038;13.692;2022-10-17T01:56:29;33.80;;;20.23;;
3757;SDS011;1894;51.038;13.692;2022-10-17T01:59:00;29.73;;;19.87;;
3757;SDS011;1894;51.038;13.692;2022-10-17T02:01:51;31.97;;;20.90;;
3757;SDS011;1894;51.038;13.692;2022-10-17T02:04:21;28.70;;;20.57;;
3757;SDS011;1894;51.038;13.692;2022-10-17T02:06:49;30.83;;;20.73;;
3757;SDS011;1894;51.038;13.692;2022-10-17T02:09:20;32.40;;;22.37;;
3757;SDS011;1894;51.038;13.692;2022-10-17T02:12:07;33.93;;;20.23;;
3757;SDS011;1894;51.038;13.692;2022-10-17T02:15:03;34.77;;;19.40;;
3757;SDS011;1894;51.038;13.692;2022-10-17T02:18:10;35.63;;;21.50;;
3757;SDS011;1894;51.038;13.692;2022-10-17T02:20:53;34.60;;;23.17;;
3757;SDS011;1894;51.038;13.692;2022-10-17T02:23:31;35.40;;;22.37;;
3757;SDS011;1894;51.038;13.692;2022-10-17T02:28:46;39.47;;;25.27;;
3757;SDS011;1894;51.038;13.692;2022-10-17T02:31:38;41.80;;;25.70;;
3757;SDS011;1894;51.038;13.692;2022-10-17T02:34:18;40.10;;;26.10;;
3757;SDS011;1894;51.038;13.692;2022-10-17T02:36:52;42.60;;;24.87;;
3757;SDS011;1894;51.038;13.692;2022-10-17T02:39:24;41.20;;;24.70;;
3757;SDS011;1894;51.038;13.692;2022-10-17T02:41:55;63.13;;;34.57;;
3757;SDS011;1894;51.038;13.692;2022-10-17T02:44:29;39.23;;;22.47;;
3757;SDS011;1894;51.038;13.692;2022-10-17T02:47:03;43.47;;;27.90;;
3757;SDS011;1894;51.038;13.692;2022-10-17T02:49:53;35.00;;;23.17;;
3757;SDS011;1894;51.038;13.692;2022-10-17T02:52:30;43.40;;;29.67;;
3757;SDS011;1894;51.038;13.692;2022-10-17T02:55:15;37.40;;;23.40;;
3757;SDS011;1894;51.038;13.692;2022-10-17T02:57:49;39.93;;;24.70;;
3757;SDS011;1894;51.038;13.692;2022-10-17T03:00:21;41.53;;;24.73;;
3757;SDS011;1894;51.038;13.692;2022-10-17T03:02:51;36.00;;;23.07;;
3757;SDS011;1894;51.038;13.692;2022-10-17T03:05:21;45.93;;;26.63;;
3757;SDS011;1894;51.038;13.692;2022-10-17T03:07:54;36.83;;;24.40;;
3757;SDS011;1894;51.038;13.692;2022-10-17T03:10:23;35.57;;;22.50;;
3757;SDS011;1894;51.038;13.692;2022-10-17T03:12:50;36.50;;;22.83;;
3757;SDS011;1894;51.038;13.692;2022-10-17T03:15:18;37.13;;;24.40;;
3757;SDS011;1894;51.038;13.692;2022-10-17T03:17:45;38.77;;;24.97;;
3757;SDS011;1894;51.038;13.692;2022-10-17T03:20:13;31.20;;;21.90;;
3757;SDS011;1894;51.038;13.692;2022-10-17T03:22:40;38.53;;;21.90;;
3757;SDS011;1894;51.038;13.692;2022-10-17T03:25:08;41.53;;;24.27;;
3757;SDS011;1894;51.038;13.692;2022-10-17T03:27:36;43.50;;;27.17;;
3757;SDS011;1894;51.038;13.692;2022-10-17T03:30:03;48.07;;;28.63;;
3757;SDS011;1894;51.038;13.692;2022-10-17T03:32:32;51.43;;;28.97;;
3757;SDS011;1894;51.038;13.692;2022-10-17T03:35:00;54.20;;;30.67;;
3757;SDS011;1894;51.038;13.692;2022-10-17T03:37:28;55.20;;;29.97;;
3757;SDS011;1894;51.038;13.692;2022-10-17T03:39:55;52.63;;;30.67;;
3757;SDS011;1894;51.038;13.692;2022-10-17T03:42:23;45.93;;;29.73;;
3757;SDS011;1894;51.038;13.692;2022-10-17T03:44:50;52.60;;;30.53;;
3757;SDS011;1894;51.038;13.692;2022-10-17T03:47:17;47.23;;;29.60;;
3757;SDS011;1894;51.038;13.692;2022-10-17T03:49:45;52.87;;;31.00;;
3757;SDS011;1894;51.038;13.692;2022-10-17T03:52:14;61.60;;;32.87;;
3757;SDS011;1894;51.038;13.692;2022-10-17T03:54:41;51.17;;;30.93;;
3757;SDS011;1894;51.038;13.692;2022-10-17T03:57:08;50.33;;;29.27;;
3757;SDS011;1894;51.038;13.692;2022-10-17T03:59:36;51.07;;;30.00;;
3757;SDS011;1894;51.038;13.692;2022-10-17T04:02:09;50.47;;;30.23;;
3757;SDS011;1894;51.038;13.692;2022-10-17T04:04:37;57.93;;;32.93;;
3757;SDS011;1894;51.038;13.692;2022-10-17T04:07:04;61.23;;;35.67;;
3757;SDS011;1894;51.038;13.692;2022-10-17T04:09:34;53.00;;;34.40;;
3757;SDS011;1894;51.038;13.692;2022-10-17T04:12:06;66.03;;;37.47;;
3757;SDS011;1894;51.038;13.692;2022-10-17T04:14:35;69.80;;;39.13;;
3757;SDS011;1894;51.038;13.692;2022-10-17T04:17:03;60.40;;;38.73;;
3757;SDS011;1894;51.038;13.692;2022-10-17T04:19:31;64.93;;;38.07;;
3757;SDS011;1894;51.038;13.692;2022-10-17T04:21:59;68.50;;;39.33;;
3757;SDS011;1894;51.038;13.692;2022-10-17T04:24:31;62.63;;;40.30;;
3757;SDS011;1894;51.038;13.692;2022-10-17T04:27:10;65.73;;;42.83;;
3757;SDS011;1894;51.038;13.692;2022-10-17T04:29:42;69.53;;;41.20;;
3757;SDS011;1894;51.038;13.692;2022-10-17T04:32:20;70.93;;;43.43;;
3757;SDS011;1894;51.038;13.692;2022-10-17T04:34:53;82.83;;;47.70;;
3757;SDS011;1894;51.038;13.692;2022-10-17T04:37:21;83.30;;;44.50;;
3757;SDS011;1894;51.038;13.692;2022-10-17T04:39:51;81.83;;;49.40;;
3757;SDS011;1894;51.038;13.692;2022-10-17T04:42:18;80.90;;;46.83;;
3757;SDS011;1894;51.038;13.692;2022-10-17T04:44:47;74.23;;;46.57;;
3757;SDS011;1894;51.038;13.692;2022-10-17T04:47:16;84.07;;;50.07;;
3757;SDS011;1894;51.038;13.692;2022-10-17T04:49:43;94.77;;;50.23;;
3757;SDS011;1894;51.038;13.692;2022-10-17T04:52:12;90.23;;;50.50;;
3757;SDS011;1894;51.038;13.692;2022-10-17T04:54:42;85.70;;;50.40;;
3757;SDS011;1894;51.038;13.692;2022-10-17T04:57:11;87.70;;;50.03;;
3757;SDS011;1894;51.038;13.692;2022-10-17T04:59:40;94.00;;;51.50;;
3757;SDS011;1894;51.038;13.692;2022-10-17T05:02:33;86.20;;;49.63;;
3757;SDS011;1894;51.038;13.692;2022-10-17T05:05:02;94.10;;;53.23;;
3757;SDS011;1894;51.038;13.692;2022-10-17T05:07:29;95.20;;;53.30;;
3757;SDS011;1894;51.038;13.692;2022-10-17T05:10:00;87.93;;;52.33;;
3757;SDS011;1894;51.038;13.692;2022-10-17T05:12:28;94.80;;;54.70;;
3757;SDS011;1894;51.038;13.692;2022-10-17T05:14:56;100.70;;;55.83;;
3757;SDS011;1894;51.038;13.692;2022-10-17T05:17:26;102.87;;;59.37;;
3757;SDS011;1894;51.038;13.692;2022-10-17T05:19:53;87.27;;;55.13;;
3757;SDS011;1894;51.038;13.692;2022-10-17T05:22:20;96.80;;;55.60;;
3757;SDS011;1894;51.038;13.692;2022-10-17T05:24:48;102.87;;;56.40;;
3757;SDS011;1894;51.038;13.692;2022-10-17T05:27:15;93.60;;;55.40;;
3757;SDS011;1894;51.038;13.692;2022-10-17T05:29:42;108.50;;;58.93;;
3757;SDS011;1894;51.038;13.692;2022-10-17T05:32:19;102.57;;;54.50;;
3757;SDS011;1894;51.038;13.692;2022-10-17T05:34:46;100.87;;;56.20;;
3757;SDS011;1894;51.038;13.692;2022-10-17T05:37:13;114.10;;;59.03;;
3757;SDS011;1894;51.038;13.692;2022-10-17T05:39:45;99.93;;;56.03;;
3757;SDS011;1894;51.038;13.692;2022-10-17T05:42:17;95.60;;;56.93;;
3757;SDS011;1894;51.038;13.692;2022-10-17T05:44:45;101.97;;;55.90;;
3757;SDS011;1894;51.038;13.692;2022-10-17T05:47:14;100.40;;;52.87;;
3757;SDS011;1894;51.038;13.692;2022-10-17T05:49:42;89.70;;;51.83;;
3757;SDS011;1894;51.038;13.692;2022-10-17T05:52:18;89.80;;;53.53;;
3757;SDS011;1894;51.038;13.692;2022-10-17T05:55:11;98.40;;;52.63;;
3757;SDS011;1894;51.038;13.692;2022-10-17T05:57:39;91.47;;;55.57;;
3757;SDS011;1894;51.038;13.692;2022-10-17T06:00:11;96.77;;;55.40;;
3757;SDS011;1894;51.038;13.692;2022-10-17T06:02:47;96.30;;;56.50;;
3757;SDS011;1894;51.038;13.692;2022-10-17T06:05:18;95.13;;;52.40;;
3757;SDS011;1894;51.038;13.692;2022-10-17T06:07:46;97.47;;;55.47;;
3757;SDS011;1894;51.038;13.692;2022-10-17T06:10:15;95.70;;;57.63;;
3757;SDS011;1894;51.038;13.692;2022-10-17T06:12:44;97.20;;;54.07;;
3757;SDS011;1894;51.038;13.692;2022-10-17T06:15:13;84.07;;;54.40;;
3757;SDS011;1894;51.038;13.692;2022-10-17T06:17:43;98.77;;;57.23;;
3757;SDS011;1894;51.038;13.692;2022-10-17T06:20:10;83.90;;;52.33;;
3757;SDS011;1894;51.038;13.692;2022-10-17T06:22:37;90.23;;;55.63;;
3757;SDS011;1894;51.038;13.692;2022-10-17T06:25:11;89.27;;;54.13;;
3757;SDS011;1894;51.038;13.692;2022-10-17T06:27:38;84.10;;;53.80;;
3757;SDS011;1894;51.038;13.692;2022-10-17T06:30:05;89.10;;;52.60;;
3757;SDS011;1894;51.038;13.692;2022-10-17T06:32:33;94.67;;;56.13;;
3757;SDS011;1894;51.038;13.692;2022-10-17T06:35:00;95.03;;;53.67;;
3757;SDS011;1894;51.038;13.692;2022-10-17T06:37:32;81.57;;;51.47;;
3757;SDS011;1894;51.038;13.692;2022-10-17T06:40:06;86.93;;;51.80;;
3757;SDS011;1894;51.038;13.692;2022-10-17T06:42:39;73.60;;;49.83;;
3757;SDS011;1894;51.038;13.692;2022-10-17T06:45:22;86.07;;;54.67;;
3757;SDS011;1894;51.038;13.692;2022-10-17T06:48:06;77.70;;;50.17;;
3757;SDS011;1894;51.038;13.692;2022-10-17T06:50:42;65.43;;;46.43;;
3757;SDS011;1894;51.038;13.692;2022-10-17T06:53:15;68.87;;;45.30;;
3757;SDS011;1894;51.038;13.692;2022-10-17T06:56:01;64.10;;;44.90;;
3757;SDS011;1894;51.038;13.692;2022-10-17T06:58:42;58.30;;;43.77;;
3757;SDS011;1894;51.038;13.692;2022-10-17T07:01:29;72.13;;;45.57;;
3757;SDS011;1894;51.038;13.692;2022-10-17T07:03:59;63.67;;;42.00;;
3757;SDS011;1894;51.038;13.692;2022-10-17T07:06:27;66.53;;;42.30;;
3757;SDS011;1894;51.038;13.692;2022-10-17T07:08:58;62.13;;;41.07;;
3757;SDS011;1894;51.038;13.692;2022-10-17T07:11:27;56.83;;;38.93;;
3757;SDS011;1894;51.038;13.692;2022-10-17T07:13:55;62.87;;;40.90;;
3757;SDS011;1894;51.038;13.692;2022-10-17T07:16:22;58.83;;;37.67;;
3757;SDS011;1894;51.038;13.692;2022-10-17T07:18:57;52.20;;;38.00;;
3757;SDS011;1894;51.038;13.692;2022-10-17T07:21:24;55.43;;;36.07;;
3757;SDS011;1894;51.038;13.692;2022-10-17T07:23:52;53.03;;;35.07;;
3757;SDS011;1894;51.038;13.692;2022-10-17T07:26:19;57.23;;;36.50;;
3757;SDS011;1894;51.038;13.692;2022-10-17T07:28:50;49.03;;;36.20;;
3757;SDS011;1894;51.038;13.692;2022-10-17T07:31:35;48.07;;;33.77;;
3757;SDS011;1894;51.038;13.692;2022-10-17T07:34:03;42.30;;;32.73;;
3757;SDS011;1894;51.038;13.692;2022-10-17T07:36:30;48.17;;;33.10;;
3757;SDS011;1894;51.038;13.692;2022-10-17T07:39:01;44.40;;;33.30;;
3757;SDS011;1894;51.038;13.692;2022-10-17T07:41:29;42.07;;;31.57;;
3757;SDS011;1894;51.038;13.692;2022-10-17T07:43:57;41.57;;;31.70;;
3757;SDS011;1894;51.038;13.692;2022-10-17T07:46:31;62.57;;;33.67;;
3757;SDS011;1894;51.038;13.692;2022-10-17T07:48:58;42.90;;;31.80;;
3757;SDS011;1894;51.038;13.692;2022-10-17T07:51:27;37.23;;;28.90;;
3757;SDS011;1894;51.038;13.692;2022-10-17T07:53:57;39.43;;;30.77;;
3757;SDS011;1894;51.038;13.692;2022-10-17T07:56:27;39.30;;;30.40;;
3757;SDS011;1894;51.038;13.692;2022-10-17T07:58:55;36.10;;;28.20;;
3757;SDS011;1894;51.038;13.692;2022-10-17T08:01:23;39.03;;;28.73;;
3757;SDS011;1894;51.038;13.692;2022-10-17T08:03:51;34.87;;;27.93;;
3757;SDS011;1894;51.038;13.692;2022-10-17T08:06:18;38.63;;;27.73;;
3757;SDS011;1894;51.038;13.692;2022-10-17T08:08:45;36.90;;;25.33;;
3757;SDS011;1894;51.038;13.692;2022-10-17T08:11:12;34.50;;;26.40;;
3757;SDS011;1894;51.038;13.692;2022-10-17T08:13:45;32.73;;;25.97;;
3757;SDS011;1894;51.038;13.692;2022-10-17T08:16:19;34.47;;;25.70;;
3757;SDS011;1894;51.038;13.692;2022-10-17T08:18:46;32.80;;;26.97;;
3757;SDS011;1894;51.038;13.692;2022-10-17T08:21:14;30.00;;;23.67;;
3757;SDS011;1894;51.038;13.692;2022-10-17T08:23:41;34.87;;;25.20;;
3757;SDS011;1894;51.038;13.692;2022-10-17T08:26:08;39.00;;;26.00;;
3757;SDS011;1894;51.038;13.692;2022-10-17T08:28:39;36.70;;;25.10;;
3757;SDS011;1894;51.038;13.692;2022-10-17T08:31:07;30.77;;;24.30;;
3757;SDS011;1894;51.038;13.692;2022-10-17T08:33:37;35.63;;;26.50;;
3757;SDS011;1894;51.038;13.692;2022-10-17T08:36:05;29.30;;;23.97;;
3757;SDS011;1894;51.038;13.692;2022-10-17T08:38:34;33.80;;;25.50;;
3757;SDS011;1894;51.038;13.692;2022-10-17T08:44:18;34.40;;;28.27;;
3757;SDS011;1894;51.038;13.692;2022-10-17T08:46:57;34.13;;;26.47;;
3757;SDS011;1894;51.038;13.692;2022-10-17T08:49:36;31.70;;;26.07;;
3757;SDS011;1894;51.038;13.692;2022-10-17T08:52:15;35.27;;;27.80;;
3757;SDS011;1894;51.038;13.692;2022-10-17T08:54:58;32.77;;;25.33;;
3757;SDS011;1894;51.038;13.692;2022-10-17T08:57:25;33.30;;;25.90;;
3757;SDS011;1894;51.038;13.692;2022-10-17T08:59:54;35.87;;;26.03;;
3757;SDS011;1894;51.038;13.692;2022-10-17T09:05:50;32.00;;;25.60;;
3757;SDS011;1894;51.038;13.692;2022-10-17T09:08:41;32.70;;;26.37;;
3757;SDS011;1894;51.038;13.692;2022-10-17T09:17:14;32.17;;;25.27;;
3757;SDS011;1894;51.038;13.692;2022-10-17T09:22:27;36.83;;;27.30;;
3757;SDS011;1894;51.038;13.692;2022-10-17T09:25:04;42.23;;;25.80;;
3757;SDS011;1894;51.038;13.692;2022-10-17T09:27:40;29.57;;;24.47;;
3757;SDS011;1894;51.038;13.692;2022-10-17T09:33:18;35.37;;;24.50;;
3757;SDS011;1894;51.038;13.692;2022-10-17T09:36:15;36.10;;;27.80;;
3757;SDS011;1894;51.038;13.692;2022-10-17T09:38:55;34.50;;;26.27;;
3757;SDS011;1894;51.038;13.692;2022-10-17T09:44:15;36.43;;;27.17;;
3757;SDS011;1894;51.038;13.692;2022-10-17T09:47:12;36.60;;;27.30;;
3757;SDS011;1894;51.038;13.692;2022-10-17T09:50:07;38.03;;;28.13;;
3757;SDS011;1894;51.038;13.692;2022-10-17T09:52:47;50.40;;;27.80;;
3757;SDS011;1894;51.038;13.692;2022-10-17T09:55:20;35.60;;;26.67;;
3757;SDS011;1894;51.038;13.692;2022-10-17T09:58:07;39.03;;;28.13;;
3757;SDS011;1894;51.038;13.692;2022-10-17T10:00:42;35.40;;;25.93;;
3757;SDS011;1894;51.038;13.692;2022-10-17T10:06:03;35.63;;;27.40;;
3757;SDS011;1894;51.038;13.692;2022-10-17T10:08:50;31.23;;;26.93;;
3757;SDS011;1894;51.038;13.692;2022-10-17T10:17:04;29.13;;;23.60;;
3757;SDS011;1894;51.038;13.692;2022-10-17T10:20:23;28.67;;;24.33;;
3757;SDS011;1894;51.038;13.692;2022-10-17T10:23:30;27.37;;;23.80;;
3757;SDS011;1894;51.038;13.692;2022-10-17T10:26:00;34.40;;;24.70;;
3757;SDS011;1894;51.038;13.692;2022-10-17T10:28:37;28.53;;;22.67;;
3757;SDS011;1894;51.038;13.692;2022-10-17T10:31:06;27.17;;;22.40;;
3757;SDS011;1894;51.038;13.692;2022-10-17T10:33:35;24.70;;;21.27;;
3757;SDS011;1894;51.038;13.692;2022-10-17T10:36:14;28.07;;;22.07;;
3757;SDS011;1894;51.038;13.692;2022-10-17T10:38:49;24.47;;;20.93;;
3757;SDS011;1894;51.038;13.692;2022-10-17T10:41:20;26.93;;;20.17;;
3757;SDS011;1894;51.038;13.692;2022-10-17T10:43:48;23.43;;;20.57;;
3757;SDS011;1894;51.038;13.692;2022-10-17T10:46:22;29.67;;;21.23;;
3757;SDS011;1894;51.038;13.692;2022-10-17T10:48:54;23.47;;;21.10;;
3757;SDS011;1894;51.038;13.692;2022-10-17T10:51:29;27.13;;;20.67;;
3757;SDS011;1894;51.038;13.692;2022-10-17T10:54:18;21.93;;;19.30;;
3757;SDS011;1894;51.038;13.692;2022-10-17T10:56:59;23.43;;;19.80;;
3757;SDS011;1894;51.038;13.692;2022-10-17T10:59:34;23.00;;;20.50;;
3757;SDS011;1894;51.038;13.692;2022-10-17T11:02:16;26.40;;;19.30;;
3757;SDS011;1894;51.038;13.692;2022-10-17T11:05:00;27.27;;;21.03;;
3757;SDS011;1894;51.038;13.692;2022-10-17T11:07:44;24.50;;;20.40;;
3757;SDS011;1894;51.038;13.692;2022-10-17T11:10:33;20.70;;;17.30;;
3757;SDS011;1894;51.038;13.692;2022-10-17T11:13:22;21.80;;;17.40;;
3757;SDS011;1894;51.038;13.692;2022-10-17T11:18:29;19.43;;;17.43;;
3757;SDS011;1894;51.038;13.692;2022-10-17T11:21:25;20.87;;;17.33;;
3757;SDS011;1894;51.038;13.692;2022-10-17T11:24:19;18.00;;;14.93;;
3757;SDS011;1894;51.038;13.692;2022-10-17T11:26:55;18.07;;;15.90;;
3757;SDS011;1894;51.038;13.692;2022-10-17T11:29:29;17.53;;;15.70;;
3757;SDS011;1894;51.038;13.692;2022-10-17T11:32:09;17.30;;;15.20;;
3757;SDS011;1894;51.038;13.692;2022-10-17T11:34:43;17.10;;;15.30;;
3757;SDS011;1894;51.038;13.692;2022-10-17T11:37:37;17.07;;;15.40;;
3757;SDS011;1894;51.038;13.692;2022-10-17T11:40:14;16.67;;;15.13;;
3757;SDS011;1894;51.038;13.692;2022-10-17T11:42:59;17.50;;;15.73;;
3757;SDS011;1894;51.038;13.692;2022-10-17T11:45:38;17.50;;;16.00;;
3757;SDS011;1894;51.038;13.692;2022-10-17T11:50:52;16.30;;;14.90;;
3757;SDS011;1894;51.038;13.692;2022-10-17T11:59:33;16.53;;;14.67;;
3757;SDS011;1894;51.038;13.692;2022-10-17T12:02:35;19.13;;;16.47;;
3757;SDS011;1894;51.038;13.692;2022-10-17T12:05:43;17.23;;;15.67;;
3757;SDS011;1894;51.038;13.692;2022-10-17T12:14:53;15.70;;;14.27;;
3757;SDS011;1894;51.038;13.692;2022-10-17T12:25:47;14.97;;;13.63;;
3757;SDS011;1894;51.038;13.692;2022-10-17T12:33:59;13.07;;;11.97;;
3757;SDS011;1894;51.038;13.692;2022-10-17T12:54:50;14.10;;;12.73;;
3757;SDS011;1894;51.038;13.692;2022-10-17T13:03:41;14.63;;;13.00;;
3757;SDS011;1894;51.038;13.692;2022-10-17T13:06:16;19.20;;;11.93;;
3757;SDS011;1894;51.038;13.692;2022-10-17T13:08:52;12.30;;;11.20;;
3757;SDS011;1894;51.038;13.692;2022-10-17T13:11:31;13.23;;;11.10;;
3757;SDS011;1894;51.038;13.692;2022-10-17T13:14:01;12.23;;;10.80;;
3757;SDS011;1894;51.038;13.692;2022-10-17T13:16:37;11.40;;;10.40;;
3757;SDS011;1894;51.038;13.692;2022-10-17T13:19:19;12.43;;;11.33;;
3757;SDS011;1894;51.038;13.692;2022-10-17T13:21:54;12.17;;;11.27;;
3757;SDS011;1894;51.038;13.692;2022-10-17T13:24:33;13.13;;;10.97;;
3757;SDS011;1894;51.038;13.692;2022-10-17T13:27:20;16.13;;;11.63;;
3757;SDS011;1894;51.038;13.692;2022-10-17T13:29:54;16.03;;;12.60;;
3757;SDS011;1894;51.038;13.692;2022-10-17T13:32:26;15.43;;;13.50;;
3757;SDS011;1894;51.038;13.692;2022-10-17T13:35:03;13.67;;;12.57;;
3757;SDS011;1894;51.038;13.692;2022-10-17T13:37:32;14.33;;;12.53;;
3757;SDS011;1894;51.038;13.692;2022-10-17T13:40:05;13.97;;;12.83;;
3757;SDS011;1894;51.038;13.692;2022-10-17T13:43:01;15.30;;;13.60;;
3757;SDS011;1894;51.038;13.692;2022-10-17T13:45:30;14.73;;;13.23;;
3757;SDS011;1894;51.038;13.692;2022-10-17T13:48:01;17.37;;;14.37;;
3757;SDS011;1894;51.038;13.692;2022-10-17T13:50:33;24.13;;;13.63;;
3757;SDS011;1894;51.038;13.692;2022-10-17T13:53:15;16.83;;;14.60;;
3757;SDS011;1894;51.038;13.692;2022-10-17T13:56:14;15.60;;;14.10;;
3757;SDS011;1894;51.038;13.692;2022-10-17T13:58:56;16.17;;;14.53;;
3757;SDS011;1894;51.038;13.692;2022-10-17T14:01:32;15.53;;;14.20;;
3757;SDS011;1894;51.038;13.692;2022-10-17T14:03:59;16.83;;;15.33;;
3757;SDS011;1894;51.038;13.692;2022-10-17T14:06:42;15.63;;;14.23;;
3757;SDS011;1894;51.038;13.692;2022-10-17T14:09:18;16.30;;;14.40;;
3757;SDS011;1894;51.038;13.692;2022-10-17T14:14:45;19.43;;;17.43;;
3757;SDS011;1894;51.038;13.692;2022-10-17T14:17:35;17.33;;;15.57;;
3757;SDS011;1894;51.038;13.692;2022-10-17T14:20:04;17.00;;;15.40;;
3757;SDS011;1894;51.038;13.692;2022-10-17T14:22:56;20.63;;;18.77;;
3757;SDS011;1894;51.038;13.692;2022-10-17T14:25:45;18.27;;;16.40;;
3757;SDS011;1894;51.038;13.692;2022-10-17T14:28:13;19.23;;;17.33;;
3757;SDS011;1894;51.038;13.692;2022-10-17T14:30:43;18.67;;;16.97;;
3757;SDS011;1894;51.038;13.692;2022-10-17T14:33:28;17.73;;;15.97;;
3757;SDS011;1894;51.038;13.692;2022-10-17T14:35:57;20.70;;;17.80;;
3757;SDS011;1894;51.038;13.692;2022-10-17T14:38:27;19.20;;;17.40;;
3757;SDS011;1894;51.038;13.692;2022-10-17T14:41:02;21.30;;;19.03;;
3757;SDS011;1894;51.038;13.692;2022-10-17T14:43:59;20.63;;;18.30;;
3757;SDS011;1894;51.038;13.692;2022-10-17T14:46:33;22.00;;;18.47;;
3757;SDS011;1894;51.038;13.692;2022-10-17T14:49:05;20.93;;;17.77;;
3757;SDS011;1894;51.038;13.692;2022-10-17T14:54:40;21.80;;;19.60;;
3757;SDS011;1894;51.038;13.692;2022-10-17T14:57:14;19.87;;;17.97;;
3757;SDS011;1894;51.038;13.692;2022-10-17T14:59:48;20.50;;;18.30;;
3757;SDS011;1894;51.038;13.692;2022-10-17T15:02:21;20.93;;;18.73;;
3757;SDS011;1894;51.038;13.692;2022-10-17T15:04:54;22.77;;;19.17;;
3757;SDS011;1894;51.038;13.692;2022-10-17T15:07:21;21.33;;;19.03;;
3757;SDS011;1894;51.038;13.692;2022-10-17T15:09:50;26.67;;;20.17;;
3757;SDS011;1894;51.038;13.692;2022-10-17T15:12:19;25.20;;;21.63;;
3757;SDS011;1894;51.038;13.692;2022-10-17T15:14:51;25.90;;;20.93;;
3757;SDS011;1894;51.038;13.692;2022-10-17T15:19:52;21.37;;;18.73;;
3757;SDS011;1894;51.038;13.692;2022-10-17T15:22:20;24.60;;;20.57;;
3757;SDS011;1894;51.038;13.692;2022-10-17T15:24:48;25.43;;;20.40;;
3757;SDS011;1894;51.038;13.692;2022-10-17T15:27:16;26.10;;;21.53;;
3757;SDS011;1894;51.038;13.692;2022-10-17T15:29:49;32.07;;;25.33;;
3757;SDS011;1894;51.038;13.692;2022-10-17T15:32:18;30.10;;;22.77;;
3757;SDS011;1894;51.038;13.692;2022-10-17T15:34:45;29.57;;;23.20;;
3757;SDS011;1894;51.038;13.692;2022-10-17T15:37:17;27.40;;;22.77;;
3757;SDS011;1894;51.038;13.692;2022-10-17T15:39:52;26.90;;;24.03;;
3757;SDS011;1894;51.038;13.692;2022-10-17T15:42:27;29.13;;;23.80;;
3757;SDS011;1894;51.038;13.692;2022-10-17T15:44:55;31.17;;;24.90;;
3757;SDS011;1894;51.038;13.692;2022-10-17T15:47:25;30.30;;;24.27;;
3757;SDS011;1894;51.038;13.692;2022-10-17T15:50:00;31.70;;;25.00;;
3757;SDS011;1894;51.038;13.692;2022-10-17T15:52:27;32.10;;;24.97;;
3757;SDS011;1894;51.038;13.692;2022-10-17T15:54:55;35.23;;;25.03;;
3757;SDS011;1894;51.038;13.692;2022-10-17T15:57:28;29.20;;;23.97;;
3757;SDS011;1894;51.038;13.692;2022-10-17T15:59:59;28.53;;;25.27;;
3757;SDS011;1894;51.038;13.692;2022-10-17T16:02:27;31.80;;;23.73;;
3757;SDS011;1894;51.038;13.692;2022-10-17T16:04:54;43.10;;;25.37;;
3757;SDS011;1894;51.038;13.692;2022-10-17T16:07:21;42.53;;;25.10;;
3757;SDS011;1894;51.038;13.692;2022-10-17T16:09:48;31.40;;;25.00;;
3757;SDS011;1894;51.038;13.692;2022-10-17T16:12:26;30.43;;;23.93;;
3757;SDS011;1894;51.038;13.692;2022-10-17T16:14:56;32.50;;;23.50;;
3757;SDS011;1894;51.038;13.692;2022-10-17T16:17:23;29.73;;;24.30;;
3757;SDS011;1894;51.038;13.692;2022-10-17T16:19:50;30.37;;;25.70;;
3757;SDS011;1894;51.038;13.692;2022-10-17T16:22:26;32.40;;;26.10;;
3757;SDS011;1894;51.038;13.692;2022-10-17T16:25:05;49.17;;;32.03;;
3757;SDS011;1894;51.038;13.692;2022-10-17T16:27:50;45.60;;;32.47;;
3757;SDS011;1894;51.038;13.692;2022-10-17T16:30:23;34.20;;;25.87;;
3757;SDS011;1894;51.038;13.692;2022-10-17T16:32:52;39.93;;;26.97;;
3757;SDS011;1894;51.038;13.692;2022-10-17T16:35:22;39.57;;;28.23;;
3757;SDS011;1894;51.038;13.692;2022-10-17T16:38:02;40.80;;;31.43;;
3757;SDS011;1894;51.038;13.692;2022-10-17T16:40:30;39.97;;;27.33;;
3757;SDS011;1894;51.038;13.692;2022-10-17T16:42:58;40.57;;;28.80;;
3757;SDS011;1894;51.038;13.692;2022-10-17T16:45:25;37.40;;;28.30;;
3757;SDS011;1894;51.038;13.692;2022-10-17T16:47:52;41.30;;;31.50;;
3757;SDS011;1894;51.038;13.692;2022-10-17T16:50:20;34.40;;;28.50;;
3757;SDS011;1894;51.038;13.692;2022-10-17T16:52:48;37.10;;;28.17;;
3757;SDS011;1894;51.038;13.692;2022-10-17T16:55:15;41.43;;;27.93;;
3757;SDS011;1894;51.038;13.692;2022-10-17T16:57:45;37.43;;;27.37;;
3757;SDS011;1894;51.038;13.692;2022-10-17T17:00:15;43.53;;;28.83;;
3757;SDS011;1894;51.038;13.692;2022-10-17T17:02:43;38.40;;;28.27;;
3757;SDS011;1894;51.038;13.692;2022-10-17T17:05:12;38.47;;;28.63;;
3757;SDS011;1894;51.038;13.692;2022-10-17T17:07:40;41.13;;;29.70;;
3757;SDS011;1894;51.038;13.692;2022-10-17T17:10:07;41.83;;;31.70;;